Time;durP1;ratioP1;P1;durP2;ratioP2;P2;SDS_P1;SDS_P2;PMS_P1;PMS_P2;Temp;Humidity;BMP_temperature;BMP_pressure;BME280_temperature;BME280_humidity;BME280_pressure;Samples;Min_cycle;Max_cycle;Signal;HPM_P1;HPM_P2
2023/03/11 00:02:14;;;;;;;1999.90;999.90;;;;;;;9.92;100.00;95909.19;5104032;28;20032;-77
2023/03/11 00:04:39;;;;;;;1999.90;999.90;;;;;;;9.99;100.00;95903.97;5099968;28;20430;-76
2023/03/11 00:07:06;;;;;;;1999.90;999.90;;;;;;;9.95;100.00;95903.03;5091140;28;20028;-75
2023/03/11 00:09:32;;;;;;;1999.90;999.90;;;;;;;10.04;100.00;95906.44;5091927;28;20024;-75
2023/03/11 00:11:57;;;;;;;1999.90;999.90;;;;;;;10.09;100.00;95889.81;5089657;28;20031;-76
2023/03/11 00:14:23;;;;;;;1999.90;999.90;;;;;;;10.01;100.00;95885.28;5089384;28;20052;-75
2023/03/11 00:16:48;;;;;;;1999.90;999.90;;;;;;;10.01;100.00;95880.63;5089530;28;20024;-75
2023/03/11 00:19:13;;;;;;;1999.90;999.90;;;;;;;9.98;100.00;95858.66;5087042;28;20030;-75
2023/03/11 00:21:39;;;;;;;1999.90;999.90;;;;;;;9.97;100.00;95863.31;5091107;28;20110;-75
2023/03/11 00:24:05;;;;;;;1999.90;999.90;;;;;;;10.13;100.00;95880.63;5088045;28;20039;-75
2023/03/11 00:26:30;;;;;;;1999.90;999.90;;;;;;;10.16;100.00;95871.75;5070781;28;20032;-75
2023/03/11 00:28:55;;;;;;;1999.90;999.90;;;;;;;10.11;100.00;95858.31;5070702;28;20495;-77
2023/03/11 00:31:21;;;;;;;1999.90;999.90;;;;;;;10.07;100.00;95862.88;5085914;28;20035;-76
2023/03/11 00:33:47;;;;;;;1999.90;999.90;;;;;;;10.01;100.00;95866.97;5090082;28;20445;-75
2023/03/11 00:36:22;;;;;;;1999.90;999.90;;;;;;;9.89;100.00;95860.72;5089780;28;20028;-75
2023/03/11 00:38:48;;;;;;;1999.90;999.90;;;;;;;9.96;100.00;95878.09;5079635;28;20036;-75
2023/03/11 00:41:13;;;;;;;1999.90;999.90;;;;;;;9.88;100.00;95870.03;5088447;28;20473;-75
2023/03/11 00:43:38;;;;;;;1999.90;999.90;;;;;;;9.92;100.00;95882.69;5088054;28;20025;-77
2023/03/11 00:46:05;;;;;;;1999.90;999.90;;;;;;;9.91;100.00;95870.16;5089327;28;20035;-76
2023/03/11 00:48:30;;;;;;;1999.90;999.90;;;;;;;9.90;100.00;95886.91;5090410;28;20040;-75
2023/03/11 00:50:55;;;;;;;1999.90;999.90;;;;;;;9.86;100.00;95884.06;5090161;28;20032;-77
2023/03/11 00:53:21;;;;;;;1999.90;999.90;;;;;;;9.82;100.00;95885.88;5090205;28;20021;-74
2023/03/11 00:55:46;;;;;;;1999.90;999.90;;;;;;;9.79;100.00;95880.28;5090184;28;20012;-77
2023/03/11 00:58:12;;;;;;;1999.90;999.90;;;;;;;9.83;100.00;95886.66;5088797;28;20103;-72
2023/03/11 01:00:38;;;;;;;1999.90;999.90;;;;;;;9.74;100.00;95869.59;5090651;28;20082;-76
2023/03/11 01:03:03;;;;;;;1999.90;999.90;;;;;;;9.76;100.00;95862.66;5090362;28;20158;-74
2023/03/11 01:05:31;;;;;;;1999.90;999.90;;;;;;;9.69;100.00;95860.50;5090486;28;20032;-75
2023/03/11 01:07:57;;;;;;;1999.90;999.90;;;;;;;9.76;100.00;95864.59;5090081;28;20028;-76
2023/03/11 01:10:22;;;;;;;1999.90;999.90;;;;;;;9.75;100.00;95866.50;5090209;28;20035;-75
2023/03/11 01:12:48;;;;;;;1999.90;999.90;;;;;;;9.67;100.00;95884.63;5090282;28;20032;-74
2023/03/11 01:15:18;;;;;;;1999.90;999.90;;;;;;;9.61;100.00;95887.91;5089253;28;20039;-75
2023/03/11 01:17:43;;;;;;;1999.90;999.90;;;;;;;9.59;100.00;95880.03;5090097;28;20778;-76
2023/03/11 01:20:10;;;;;;;1999.90;999.90;;;;;;;9.53;100.00;95880.59;5089873;28;20024;-75
2023/03/11 01:22:36;;;;;;;1999.90;999.90;;;;;;;9.35;100.00;95866.38;5089784;28;20024;-76
2023/03/11 01:25:02;;;;;;;1999.90;999.90;;;;;;;9.23;100.00;95844.53;5089535;28;20024;-75
2023/03/11 01:27:27;;;;;;;1999.90;999.90;;;;;;;9.14;100.00;95819.28;5089663;28;20036;-74
2023/03/11 01:29:53;;;;;;;1999.90;999.90;;;;;;;9.02;100.00;95802.91;5089543;28;20377;-75
2023/03/11 01:32:18;;;;;;;1999.90;999.90;;;;;;;9.05;100.00;95826.78;5086254;28;20029;-75
2023/03/11 01:34:44;;;;;;;1999.90;999.90;;;;;;;8.91;100.00;95826.28;5076068;28;20025;-75
2023/03/11 01:37:09;;;;;;;1999.90;999.90;;;;;;;8.89;100.00;95834.81;5089124;28;20031;-75
2023/03/11 01:39:34;;;;;;;1999.90;999.90;;;;;;;8.80;100.00;95841.47;5089577;28;20534;-75
2023/03/11 01:42:00;;;;;;;1999.90;999.90;;;;;;;8.73;100.00;95852.91;5090008;28;20024;-76
2023/03/11 01:44:25;;;;;;;1999.90;999.90;;;;;;;8.61;100.00;95867.28;5089558;28;20397;-75
2023/03/11 01:46:50;;;;;;;1999.90;999.90;;;;;;;8.63;100.00;95874.31;5090046;28;20028;-75
2023/03/11 01:49:16;;;;;;;1999.90;999.90;;;;;;;8.55;100.00;95874.06;5089922;28;20494;-75
2023/03/11 01:51:45;;;;;;;1999.90;999.90;;;;;;;8.60;100.00;95867.63;5090041;28;20074;-75
2023/03/11 01:54:15;;;;;;;1999.90;999.90;;;;;;;8.55;100.00;95843.31;5089715;28;20028;-76
2023/03/11 01:56:41;;;;;;;1999.90;999.90;;;;;;;8.58;100.00;95861.72;5089892;28;20651;-74
2023/03/11 01:59:14;;;;;;;1999.90;999.90;;;;;;;8.57;100.00;95855.47;5089953;28;20043;-76
2023/03/11 02:01:53;;;;;;;1999.90;999.90;;;;;;;8.67;100.00;95848.81;5090099;28;20016;-75
2023/03/11 02:04:20;;;;;;;1999.90;999.90;;;;;;;8.70;100.00;95828.25;5090992;28;20012;-75
2023/03/11 02:06:45;;;;;;;1999.90;999.90;;;;;;;8.76;100.00;95840.56;5093415;28;20047;-76
2023/03/11 02:09:11;;;;;;;1999.90;999.90;;;;;;;8.70;100.00;95839.97;5093503;28;20460;-75
2023/03/11 02:11:36;;;;;;;1999.90;999.90;;;;;;;8.63;100.00;95849.81;5093508;28;20023;-76
2023/03/11 02:14:05;;;;;;;1999.90;999.90;;;;;;;8.54;100.00;95850.69;5093318;28;20389;-75
2023/03/11 02:16:31;;;;;;;1999.90;999.90;;;;;;;8.46;100.00;95840.66;5093852;28;20024;-75
2023/03/11 02:19:21;;;;;;;1999.90;999.90;;;;;;;8.46;100.00;95848.81;5093594;28;20028;-74
2023/03/11 02:21:48;;;;;;;1999.90;999.90;;;;;;;8.42;100.00;95842.47;5093955;28;20036;-74
2023/03/11 02:24:24;;;;;;;1999.90;999.90;;;;;;;8.24;100.00;95837.47;5094018;28;20012;-75
2023/03/11 02:27:00;;;;;;;1999.90;999.90;;;;;;;8.31;100.00;95832.28;5093761;28;20036;-74
2023/03/11 02:29:26;;;;;;;;;;;;;;;8.39;100.00;95837.69;5094674;28;20024;-75
2023/03/11 02:31:53;;;;;;;1999.90;999.90;;;;;;;8.29;100.00;95826.38;5094895;28;19965;-74
2023/03/11 02:34:28;;;;;;;1999.90;999.90;;;;;;;8.32;100.00;95839.34;5093135;28;20028;-75
2023/03/11 02:36:53;;;;;;;1999.90;999.90;;;;;;;8.34;100.00;95840.59;5093274;28;20035;-75
2023/03/11 02:39:49;;;;;;;1999.90;999.90;;;;;;;8.35;100.00;95841.41;5091957;28;20044;-75
2023/03/11 02:42:27;;;;;;;1999.90;999.90;;;;;;;8.45;100.00;95836.34;5093288;28;20024;-74
2023/03/11 02:45:02;;;;;;;1999.90;999.90;;;;;;;8.46;100.00;95845.28;5093870;28;20051;-76
2023/03/11 02:47:27;;;;;;;1999.90;999.90;;;;;;;8.51;100.00;95850.56;5093106;28;20024;-75
2023/03/11 02:49:55;;;;;;;1999.90;999.90;;;;;;;8.46;100.00;95848.81;5093331;28;20047;-76
2023/03/11 02:52:21;;;;;;;1999.90;999.90;;;;;;;8.42;100.00;95844.38;5093252;28;20388;-75
2023/03/11 02:54:46;;;;;;;1999.90;999.90;;;;;;;8.45;100.00;95869.03;5093137;28;20019;-75
2023/03/11 02:57:11;;;;;;;1999.90;999.90;;;;;;;8.46;100.00;95865.16;5093156;28;20078;-75
2023/03/11 02:59:37;;;;;;;1999.90;999.90;;;;;;;8.51;100.00;95858.72;5093262;28;20070;-76
2023/03/11 03:02:02;;;;;;;1999.90;999.90;;;;;;;8.53;100.00;95856.47;5093005;28;20028;-74
2023/03/11 03:04:28;;;;;;;1999.90;999.90;;;;;;;8.63;100.00;95857.97;5092941;28;20032;-74
2023/03/11 03:06:53;;;;;;;1999.90;999.90;;;;;;;8.67;100.00;95850.75;5093150;28;20020;-75
2023/03/11 03:09:18;;;;;;;1999.90;999.90;;;;;;;8.66;100.00;95840.97;5092562;28;20173;-75
2023/03/11 03:11:44;;;;;;;1999.90;999.90;;;;;;;8.68;100.00;95836.00;5092632;28;20400;-75
2023/03/11 03:14:09;;;;;;;1999.90;999.90;;;;;;;8.67;100.00;95848.81;5092301;28;20058;-74
2023/03/11 03:16:34;;;;;;;1999.90;999.90;;;;;;;8.68;100.00;95855.06;5092021;28;20059;-75
2023/03/11 03:19:00;;;;;;;1999.90;999.90;;;;;;;8.63;100.00;95847.06;5092573;28;20534;-77
2023/03/11 03:21:25;;;;;;;1999.90;999.90;;;;;;;8.58;100.00;95851.59;5092492;28;20058;-75
2023/03/11 03:23:50;;;;;;;1999.90;999.90;;;;;;;8.71;100.00;95855.16;5092542;28;20111;-75
2023/03/11 03:26:16;;;;;;;1999.90;999.90;;;;;;;8.64;100.00;95867.75;5093007;28;20014;-75
2023/03/11 03:28:41;;;;;;;1999.90;999.90;;;;;;;8.57;100.00;95858.19;5093848;28;20067;-75
2023/03/11 03:31:10;;;;;;;1999.90;999.90;;;;;;;8.65;100.00;95872.06;5093825;28;20039;-75
2023/03/11 03:33:36;;;;;;;1999.90;999.90;;;;;;;8.55;100.00;95863.16;5093874;28;20083;-74
2023/03/11 03:36:09;;;;;;;1999.90;999.90;;;;;;;8.60;100.00;95859.44;5092238;28;20030;-75
2023/03/11 03:38:34;;;;;;;1999.90;999.90;;;;;;;8.54;100.00;95863.50;5092084;28;20055;-75
2023/03/11 03:40:59;;;;;;;1999.90;999.90;;;;;;;8.59;100.00;95864.09;5092104;28;20480;-75
2023/03/11 03:43:25;;;;;;;1999.90;999.90;;;;;;;8.63;100.00;95874.31;5092051;28;20375;-75
2023/03/11 03:45:55;;;;;;;1999.90;999.90;;;;;;;8.69;100.00;95879.25;5091063;28;20027;-74
2023/03/11 03:48:20;;;;;;;1999.90;999.90;;;;;;;8.50;100.00;95877.00;5090538;28;20035;-74
2023/03/11 03:50:45;;;;;;;1999.90;999.90;;;;;;;8.63;100.00;95863.44;5090545;28;20038;-75
2023/03/11 03:53:11;;;;;;;1999.90;999.90;;;;;;;8.62;100.00;95887.16;5091611;28;20492;-75
2023/03/11 03:55:36;;;;;;;1999.90;999.90;;;;;;;8.52;100.00;95873.97;5092014;28;20446;-75
2023/03/11 03:58:01;;;;;;;1999.90;999.90;;;;;;;8.47;100.00;95866.78;5092103;28;20114;-75
2023/03/11 04:00:27;;;;;;;1999.90;999.90;;;;;;;8.45;100.00;95869.03;5092355;28;20060;-74
2023/03/11 04:02:52;;;;;;;1999.90;999.90;;;;;;;8.39;100.00;95862.19;5091980;28;20358;-75
2023/03/11 04:05:17;;;;;;;1999.90;999.90;;;;;;;8.41;100.00;95878.19;5091696;28;20028;-74
2023/03/11 04:07:43;;;;;;;1999.90;999.90;;;;;;;8.28;100.00;95879.25;5091543;28;20051;-75
2023/03/11 04:10:09;;;;;;;1999.90;999.90;;;;;;;8.31;100.00;95876.66;5091715;28;20111;-76
2023/03/11 04:12:34;;;;;;;1999.90;999.90;;;;;;;8.16;100.00;95863.63;5091571;28;20028;-74
2023/03/11 04:14:59;;;;;;;1999.90;999.90;;;;;;;8.18;100.00;95863.28;5092209;28;20072;-74
2023/03/11 04:17:25;;;;;;;1999.90;999.90;;;;;;;8.14;100.00;95862.34;5093419;28;20046;-79
2023/03/11 04:19:50;;;;;;;1999.90;999.90;;;;;;;8.04;100.00;95858.91;5092505;28;20077;-74
2023/03/11 04:22:15;;;;;;;1999.90;999.90;;;;;;;8.07;100.00;95868.31;5091254;28;20051;-74
2023/03/11 04:24:41;;;;;;;1999.90;999.90;;;;;;;8.01;100.00;95867.72;5091254;28;20081;-74
2023/03/11 04:27:06;;;;;;;1999.90;999.90;;;;;;;7.88;100.00;95867.97;5091358;28;20030;-75
2023/03/11 04:29:32;;;;;;;1999.90;999.90;;;;;;;7.94;100.00;95880.25;5090159;28;20024;-74
2023/03/11 04:31:57;;;;;;;1999.90;999.90;;;;;;;7.83;100.00;95874.38;5091477;28;20439;-74
2023/03/11 04:34:22;;;;;;;1999.90;999.90;;;;;;;7.76;100.00;95884.19;5090031;28;20436;-74
2023/03/11 04:36:51;;;;;;;1999.90;999.90;;;;;;;7.77;100.00;95904.84;5071221;28;20066;-74
2023/03/11 04:39:16;;;;;;;1999.90;999.90;;;;;;;7.63;100.00;95907.00;5069167;28;20393;-75
2023/03/11 04:41:42;;;;;;;1999.90;999.90;;;;;;;7.55;100.00;95911.31;5081557;28;20073;-76
2023/03/11 04:44:07;;;;;;;1999.90;999.90;;;;;;;7.51;100.00;95911.22;5070295;28;20580;-75
2023/03/11 04:46:32;;;;;;;1999.90;999.90;;;;;;;7.44;100.00;95916.34;5080638;28;20021;-75
2023/03/11 04:48:58;;;;;;;1999.90;999.90;;;;;;;7.52;100.00;95925.56;5089202;28;20028;-76
2023/03/11 04:51:23;;;;;;;1999.90;999.90;;;;;;;7.66;100.00;95909.06;5090617;28;20047;-75
2023/03/11 04:53:48;;;;;;;1999.90;999.90;;;;;;;7.68;100.00;95906.78;5090679;28;20389;-75
2023/03/11 04:56:14;;;;;;;1999.90;999.90;;;;;;;7.64;100.00;95887.63;5090733;28;20020;-75
2023/03/11 04:58:39;;;;;;;1999.90;999.90;;;;;;;7.72;100.00;95905.03;5081088;28;20106;-75
2023/03/11 05:01:04;;;;;;;1999.90;999.90;;;;;;;7.80;100.00;95909.63;5070547;28;20036;-75
2023/03/11 05:03:30;;;;;;;1999.90;999.90;;;;;;;7.86;100.00;95900.16;5070918;28;20476;-75
2023/03/11 05:05:55;;;;;;;1999.90;999.90;;;;;;;7.89;100.00;95905.72;5070732;28;20109;-76
2023/03/11 05:08:22;;;;;;;1999.90;999.90;;;;;;;7.91;100.00;95913.56;5074931;28;20179;-74
2023/03/11 05:10:49;;;;;;;1999.90;999.90;;;;;;;7.94;100.00;95921.88;5091550;28;20054;-74
2023/03/11 05:13:15;;;;;;;1999.90;999.90;;;;;;;7.91;100.00;95927.97;5092515;28;20039;-74
2023/03/11 05:15:41;;;;;;;1999.90;999.90;;;;;;;7.97;100.00;95934.03;5092099;28;20036;-77
2023/03/11 05:18:06;;;;;;;1999.90;999.90;;;;;;;7.98;100.00;95938.38;5092979;28;20020;-75
2023/03/11 05:20:32;;;;;;;1999.90;999.90;;;;;;;7.95;100.00;95941.75;5096216;28;20027;-79
2023/03/11 05:22:58;;;;;;;1999.90;999.90;;;;;;;8.04;100.00;95950.66;5095623;28;20380;-74
2023/03/11 05:25:23;;;;;;;1999.90;999.90;;;;;;;8.05;100.00;95955.75;5096195;28;20030;-80
2023/03/11 05:27:49;;;;;;;1999.90;999.90;;;;;;;8.05;100.00;95963.94;5095931;28;20472;-75
2023/03/11 05:30:14;;;;;;;1999.90;999.90;;;;;;;8.13;100.00;95970.47;5096688;28;20081;-74
2023/03/11 05:32:40;;;;;;;1999.90;999.90;;;;;;;8.12;100.00;95968.88;5095347;28;20020;-74
2023/03/11 05:35:05;;;;;;;1999.90;999.90;;;;;;;8.05;100.00;95965.84;5095623;28;20021;-78
2023/03/11 05:37:31;;;;;;;1999.90;999.90;;;;;;;8.20;100.00;95959.88;5099613;28;20024;-75
2023/03/11 05:39:56;;;;;;;1999.90;999.90;;;;;;;8.18;100.00;95945.75;5106516;28;20070;-74
2023/03/11 05:42:22;;;;;;;1999.90;999.90;;;;;;;8.14;100.00;95931.22;5099888;28;20030;-75
2023/03/11 05:44:47;;;;;;;1999.90;999.90;;;;;;;8.26;100.00;95946.84;5098949;28;20571;-75
2023/03/11 05:47:13;;;;;;;1999.90;999.90;;;;;;;8.26;100.00;95947.66;5095589;28;20116;-72
2023/03/11 05:49:38;;;;;;;1999.90;999.90;;;;;;;8.27;100.00;95945.72;5095646;28;20476;-73
2023/03/11 05:52:03;;;;;;;1999.90;999.90;;;;;;;8.24;100.00;95940.94;5093459;28;20040;-73
2023/03/11 05:54:29;;;;;;;1999.90;999.90;;;;;;;8.26;100.00;95942.19;5093342;28;20024;-73
2023/03/11 05:56:54;;;;;;;1999.90;999.90;;;;;;;8.29;100.00;95943.50;5093161;28;20085;-72
2023/03/11 05:59:20;;;;;;;1999.90;999.90;;;;;;;8.27;100.00;95940.28;5093308;28;20122;-73
2023/03/11 06:01:45;;;;;;;1999.90;999.90;;;;;;;8.29;100.00;95947.03;5093167;28;20043;-72
2023/03/11 06:04:11;;;;;;;1999.90;999.90;;;;;;;8.25;100.00;95956.94;5092902;28;20024;-72
2023/03/11 06:06:39;;;;;;;1999.90;999.90;;;;;;;8.26;100.00;95963.19;5094264;28;20465;-73
2023/03/11 06:09:05;;;;;;;1999.90;999.90;;;;;;;8.21;100.00;95955.19;5093125;28;20077;-72
2023/03/11 06:11:30;;;;;;;1999.90;999.90;;;;;;;8.22;100.00;95975.84;5092498;28;20422;-74
2023/03/11 06:13:57;;;;;;;1999.90;999.90;;;;;;;8.20;100.00;95965.31;5092850;28;20090;-73
2023/03/11 06:16:24;;;;;;;1999.90;999.90;;;;;;;8.21;100.00;95977.78;5093157;28;20031;-73
2023/03/11 06:18:49;;;;;;;1999.90;999.90;;;;;;;8.16;100.00;95977.97;5092721;28;20035;-73
2023/03/11 06:21:20;;;;;;;1999.90;999.90;;;;;;;8.19;100.00;95990.94;5092820;28;20024;-74
2023/03/11 06:23:46;;;;;;;1999.90;999.90;;;;;;;8.13;100.00;95994.97;5092850;28;20020;-74
2023/03/11 06:26:14;;;;;;;1999.90;999.90;;;;;;;8.16;100.00;96005.22;5092499;28;20015;-73
2023/03/11 06:28:41;;;;;;;1999.90;999.90;;;;;;;8.13;100.00;95992.25;5092510;28;20036;-74
2023/03/11 06:31:11;;;;;;;1999.90;999.90;;;;;;;8.28;100.00;96002.59;5093335;28;20030;-73
2023/03/11 06:33:36;;;;;;;1999.90;999.90;;;;;;;8.23;100.00;95996.53;5092583;28;20024;-73
2023/03/11 06:36:03;;;;;;;1999.90;999.90;;;;;;;8.30;100.00;96013.97;5076543;28;20039;-74
2023/03/11 06:38:29;;;;;;;1999.90;999.90;;;;;;;8.39;100.00;96009.28;5072799;28;20031;-74
2023/03/11 06:40:59;;;;;;;1999.90;999.90;;;;;;;8.42;100.00;96011.34;5071955;28;20111;-73
2023/03/11 06:43:24;;;;;;;1999.90;999.90;;;;;;;8.36;100.00;96001.78;5071902;28;20032;-73
2023/03/11 06:45:49;;;;;;;1999.90;999.90;;;;;;;8.30;100.00;96008.50;5071901;28;20113;-74
2023/03/11 06:48:15;;;;;;;1999.90;999.90;;;;;;;8.46;100.00;96017.72;5072241;28;20025;-74
2023/03/11 06:50:40;;;;;;;1999.90;999.90;;;;;;;8.63;100.00;96027.72;5071517;28;20064;-74
2023/03/11 06:53:06;;;;;;;1999.90;999.90;;;;;;;8.68;100.00;96035.72;5071662;28;20034;-74
2023/03/11 06:55:32;;;;;;;1999.90;999.90;;;;;;;8.66;100.00;96037.97;5071971;28;20098;-73
2023/03/11 06:57:58;;;;;;;1999.90;999.90;;;;;;;8.61;100.00;96055.31;5071739;28;20039;-74
2023/03/11 07:00:24;;;;;;;1999.90;999.90;;;;;;;8.70;100.00;96059.91;5074137;28;20511;-73
2023/03/11 07:02:49;;;;;;;1999.90;999.90;;;;;;;8.66;100.00;96056.25;5091842;28;20443;-73
2023/03/11 07:05:15;;;;;;;1999.90;999.90;;;;;;;8.68;100.00;96067.63;5090639;28;20027;-73
2023/03/11 07:07:40;;;;;;;1999.90;999.90;;;;;;;8.66;100.00;96081.56;5092822;28;20125;-74
2023/03/11 07:10:06;;;;;;;1999.90;999.90;;;;;;;8.70;100.00;96085.25;5093186;28;20100;-73
2023/03/11 07:12:31;;;;;;;1999.90;999.90;;;;;;;8.71;100.00;96084.09;5092301;28;20103;-73
2023/03/11 07:14:58;;;;;;;1999.90;999.90;;;;;;;8.68;100.00;96079.31;5092019;28;20078;-74
2023/03/11 07:17:24;;;;;;;1999.90;999.90;;;;;;;8.58;100.00;96075.03;5092279;28;20043;-75
2023/03/11 07:19:51;;;;;;;1999.90;999.90;;;;;;;8.48;100.00;96086.31;5090605;28;20111;-74
2023/03/11 07:22:16;;;;;;;1999.90;999.90;;;;;;;8.39;100.00;96088.28;5091433;28;20115;-74
2023/03/11 07:24:45;;;;;;;1999.90;999.90;;;;;;;8.38;100.00;96091.34;5091227;28;20023;-74
2023/03/11 07:27:10;;;;;;;1999.90;999.90;;;;;;;8.36;100.00;96107.22;5091238;28;20024;-72
2023/03/11 07:29:36;;;;;;;1999.90;999.90;;;;;;;8.43;100.00;96111.00;5091119;28;20028;-73
2023/03/11 07:32:01;;;;;;;1999.90;999.90;;;;;;;8.45;100.00;96122.41;5089872;28;20052;-73
2023/03/11 07:34:27;;;;;;;1999.90;999.90;;;;;;;8.39;100.00;96129.16;5091157;28;20495;-73
2023/03/11 07:36:52;;;;;;;1999.90;999.90;;;;;;;8.52;100.00;96136.28;5091152;28;20032;-74
2023/03/11 07:39:17;;;;;;;1999.90;999.90;;;;;;;8.53;100.00;96127.00;5091096;28;20020;-74
2023/03/11 07:41:44;;;;;;;1999.90;999.90;;;;;;;8.63;100.00;96142.19;5090930;28;20063;-74
2023/03/11 07:44:12;;;;;;;1999.90;999.90;;;;;;;8.73;100.00;96143.75;5090958;28;20385;-74
2023/03/11 07:46:37;;;;;;;1999.90;999.90;;;;;;;8.57;100.00;96127.16;5090835;28;20085;-74
2023/03/11 07:49:03;;;;;;;1999.90;999.90;;;;;;;8.64;100.00;96138.34;5090302;28;20028;-73
2023/03/11 07:51:31;;;;;;;1999.90;999.90;;;;;;;8.60;100.00;96127.28;5089109;28;20413;-75
2023/03/11 07:53:58;;;;;;;1999.90;999.90;;;;;;;8.92;100.00;96134.03;5091044;28;20059;-75
2023/03/11 07:56:24;;;;;;;1999.90;999.90;;;;;;;9.07;100.00;96146.28;5090330;28;20024;-75
2023/03/11 07:58:50;;;;;;;1999.90;999.90;;;;;;;9.16;100.00;96141.56;5089995;28;20019;-75
2023/03/11 08:01:21;;;;;;;1999.90;999.90;;;;;;;9.32;100.00;96158.97;5088176;28;20039;-75
2023/03/11 08:03:49;;;;;;;1999.90;999.90;;;;;;;9.25;100.00;96150.50;5088359;28;20028;-75
2023/03/11 08:06:20;;;;;;;1999.90;999.90;;;;;;;9.41;100.00;96156.16;5088622;28;20028;-76
2023/03/11 08:08:47;;;;;;;1999.90;999.90;;;;;;;10.47;100.00;96160.84;5086232;28;20133;-76
2023/03/11 08:11:13;;;;;;;1999.90;999.90;;;;;;;10.81;100.00;96159.63;5088303;28;20493;-75
2023/03/11 08:13:40;;;;;;;1999.90;999.90;;;;;;;10.81;100.00;96164.34;5088682;28;20085;-75
2023/03/11 08:16:07;;;;;;;1999.90;999.90;;;;;;;10.88;100.00;96164.53;5087280;28;20047;-74
2023/03/11 08:18:33;;;;;;;1999.90;999.90;;;;;;;10.80;100.00;96174.47;5089417;28;20016;-73
2023/03/11 08:21:02;;;;;;;1999.90;999.90;;;;;;;11.34;100.00;96183.22;5088679;28;20021;-74
2023/03/11 08:23:28;;;;;;;1999.90;999.90;;;;;;;12.32;100.00;96190.06;5088483;28;20016;-74
2023/03/11 08:25:53;;;;;;;1999.90;999.90;;;;;;;12.70;100.00;96193.06;5089019;28;20073;-77
2023/03/11 08:28:19;;;;;;;1999.90;999.90;;;;;;;12.81;100.00;96187.88;5089397;28;20188;-75
2023/03/11 08:30:44;;;;;;;1999.90;999.90;;;;;;;12.77;100.00;96198.75;5089735;28;20135;-74
2023/03/11 08:33:09;;;;;;;1999.90;999.90;;;;;;;13.74;100.00;96206.25;5089265;28;20051;-76
2023/03/11 08:35:35;;;;;;;1999.90;999.90;;;;;;;15.34;100.00;96204.66;5091371;28;20020;-77
2023/03/11 08:38:01;;;;;;;1999.90;999.90;;;;;;;16.67;99.47;96215.19;5090474;28;20060;-76
2023/03/11 08:40:26;;;;;;;1999.90;999.90;;;;;;;18.55;84.71;96224.63;5089308;28;20380;-78
2023/03/11 08:42:54;;;;;;;1999.90;999.90;;;;;;;17.92;85.48;96225.06;5091014;28;20020;-78
2023/03/11 08:45:19;;;;;;;1999.90;999.90;;;;;;;17.11;85.62;96230.69;5097413;28;20054;-79
2023/03/11 08:47:45;;;;;;;1999.90;999.90;;;;;;;15.83;89.85;96219.22;5090496;28;20044;-75
2023/03/11 08:50:14;;;;;;;1999.90;999.90;;;;;;;14.41;98.85;96217.88;5093511;28;20381;-81
2023/03/11 08:52:39;;;;;;;1999.90;999.90;;;;;;;13.46;100.00;96210.28;5094110;28;20039;-75
2023/03/11 08:55:07;;;;;;;1999.90;999.90;;;;;;;13.01;100.00;96216.19;5092937;28;20071;-76
2023/03/11 08:57:33;;;;;;;1999.90;999.90;;;;;;;12.96;100.00;96230.19;5088322;28;20040;-78
2023/03/11 08:59:58;;;;;;;1999.90;999.90;;;;;;;12.96;100.00;96221.97;5091302;28;20028;-74
2023/03/11 09:02:24;;;;;;;1999.90;999.90;;;;;;;12.72;100.00;96225.63;5089804;28;20024;-75
2023/03/11 09:04:50;;;;;;;1999.90;999.90;;;;;;;12.69;100.00;96216.16;5089410;28;20036;-75
2023/03/11 09:07:15;;;;;;;1999.90;999.90;;;;;;;12.34;100.00;96209.72;5089410;28;20036;-76
2023/03/11 09:09:41;;;;;;;1999.90;999.90;;;;;;;12.13;100.00;96225.56;5089532;28;20051;-75
2023/03/11 09:12:07;;;;;;;1999.90;999.90;;;;;;;11.95;100.00;96224.25;5089693;28;20070;-75
2023/03/11 09:14:34;;;;;;;1999.90;999.90;;;;;;;11.81;100.00;96225.41;5093291;28;20044;-75
2023/03/11 09:17:00;;;;;;;1999.90;999.90;;;;;;;11.66;100.00;96220.63;5101610;28;20416;-75
2023/03/11 09:19:26;;;;;;;1999.90;999.90;;;;;;;11.55;100.00;96233.19;5098798;28;20105;-74
2023/03/11 09:21:51;;;;;;;1999.90;999.90;;;;;;;11.40;100.00;96241.31;5091061;28;20024;-75
2023/03/11 09:24:16;;;;;;;1999.90;999.90;;;;;;;11.26;100.00;96244.38;5091387;28;20055;-75
2023/03/11 09:26:42;;;;;;;1999.90;999.90;;;;;;;11.33;100.00;96243.81;5093552;28;20027;-75
2023/03/11 09:29:07;;;;;;;1999.90;999.90;;;;;;;11.22;100.00;96236.03;5093385;28;20739;-75
2023/03/11 09:31:33;;;;;;;1999.90;999.90;;;;;;;11.27;100.00;96254.19;5092931;28;20020;-75
2023/03/11 09:33:58;;;;;;;1999.90;999.90;;;;;;;11.44;100.00;96267.63;5090751;28;20026;-76
2023/03/11 09:36:23;;;;;;;1999.90;999.90;;;;;;;11.56;100.00;96251.19;5100615;28;20016;-75
2023/03/11 09:38:49;;;;;;;1999.90;999.90;;;;;;;11.74;100.00;96262.75;5108289;28;20023;-75
2023/03/11 09:41:22;;;;;;;1999.90;999.90;;;;;;;11.80;100.00;96270.41;5094333;28;20701;-76
2023/03/11 09:43:57;;;;;;;1999.90;999.90;;;;;;;11.85;100.00;96246.63;5093637;28;20040;-75
2023/03/11 09:46:34;;;;;;;1999.90;999.90;;;;;;;12.22;100.00;96265.38;5094459;28;20866;-75
2023/03/11 09:49:20;;;;;;;1999.90;999.90;;;;;;;12.57;100.00;96264.81;5110748;28;20136;-73
2023/03/11 09:52:09;;;;;;;1999.90;999.90;;;;;;;12.81;100.00;96267.44;5079370;28;20472;-73
2023/03/11 09:54:41;;;;;;;1999.90;999.90;;;;;;;12.98;100.00;96280.84;5093568;28;20093;-73
2023/03/11 09:57:13;;;;;;;1999.90;999.90;;;;;;;12.94;100.00;96276.41;5093416;28;20434;-74
2023/03/11 09:59:40;;;;;;;1999.90;999.90;;;;;;;12.94;100.00;96273.66;5108103;28;20020;-74
2023/03/11 10:02:13;;;;;;;1999.90;999.90;;;;;;;12.77;100.00;96261.06;5103578;28;20024;-73
2023/03/11 10:04:48;;;;;;;1999.90;999.90;;;;;;;12.95;100.00;96280.72;5092868;28;20098;-73
2023/03/11 10:07:20;;;;;;;1999.90;999.90;;;;;;;12.92;100.00;96279.50;5107351;28;20011;-73
2023/03/11 10:09:55;;;;;;;1999.90;999.90;;;;;;;12.95;100.00;96294.47;5098627;28;20030;-74
2023/03/11 10:12:21;;;;;;;1999.90;999.90;;;;;;;13.29;100.00;96288.31;5096012;28;20036;-75
2023/03/11 10:15:15;;;;;;;1999.90;999.90;;;;;;;14.92;98.62;96299.13;5094832;28;20492;-74
2023/03/11 10:17:54;;;;;;;1999.90;999.90;;;;;;;15.71;85.92;96304.91;5088627;28;20475;-73
2023/03/11 10:20:47;;;;;;;1999.90;999.90;;;;;;;16.92;78.46;96310.97;5103584;28;20045;-73
2023/03/11 10:23:26;;;;;;;1999.90;999.90;;;;;;;15.41;82.44;96312.25;5107586;28;20032;-73
2023/03/11 10:26:06;;;;;;;1999.90;999.90;;;;;;;14.53;88.69;96303.06;5100009;28;20023;-72
2023/03/11 10:28:48;;;;;;;1999.90;999.90;;;;;;;13.81;91.17;96299.81;5103480;28;20035;-73
2023/03/11 10:31:54;;;;;;;1999.90;999.90;;;;;;;13.28;90.61;96314.22;5109135;28;20023;-73
2023/03/11 10:34:27;;;;;;;1999.90;999.90;;;;;;;13.10;94.71;96308.25;5033903;28;20505;-73
2023/03/11 10:37:02;;;;;;;1999.90;999.90;;;;;;;13.07;95.49;96311.66;5099574;28;20047;-72
2023/03/11 10:39:29;;;;;;;1999.90;999.90;;;;;;;12.99;96.80;96307.13;5078750;28;20094;-72
2023/03/11 10:41:59;;;;;;;1999.90;999.90;;;;;;;13.08;94.85;96301.47;5105070;28;20032;-73
2023/03/11 10:44:31;;;;;;;1999.90;999.90;;;;;;;13.31;93.78;96295.06;5093294;28;20032;-72
2023/03/11 10:46:56;;;;;;;1999.90;999.90;;;;;;;13.53;90.56;96301.09;5092408;28;20032;-73
2023/03/11 10:49:22;;;;;;;1999.90;999.90;;;;;;;13.07;90.73;96303.41;5109375;28;20032;-73
2023/03/11 10:51:50;;;;;;;1999.90;999.90;;;;;;;12.94;90.03;96317.59;5090895;28;20476;-75
2023/03/11 10:54:36;;;;;;;1999.90;999.90;;;;;;;12.94;88.87;96314.84;5110835;28;20027;-75